createdAt,value
2023-03-03T00:00:28.304Z,99.90
2023-03-03T00:02:30.213Z,99.90
2023-03-03T00:04:31.930Z,99.90
2023-03-03T00:06:33.770Z,99.90
2023-03-03T00:08:35.442Z,99.90
2023-03-03T00:10:38.433Z,99.90
2023-03-03T00:12:48.805Z,99.90
2023-03-03T00:14:51.139Z,99.90
2023-03-03T00:16:52.876Z,99.90
2023-03-03T00:18:55.266Z,99.90
2023-03-03T00:21:01.237Z,99.90
2023-03-03T00:23:36.437Z,99.90
2023-03-03T00:25:38.279Z,99.90
2023-03-03T00:27:40.013Z,99.90
2023-03-03T00:29:48.220Z,99.90
2023-03-03T00:31:50.312Z,99.90
2023-03-03T00:33:55.584Z,99.90
2023-03-03T00:35:58.068Z,99.90
2023-03-03T00:38:01.889Z,99.90
2023-03-03T00:40:24.932Z,99.90
2023-03-03T00:42:27.800Z,99.90
2023-03-03T00:44:43.993Z,99.90
2023-03-03T00:46:45.658Z,99.90
2023-03-03T00:48:48.938Z,99.90
2023-03-03T00:50:53.235Z,99.90
2023-03-03T00:53:05.659Z,99.90
2023-03-03T00:55:08.443Z,99.90
2023-03-03T00:57:11.053Z,99.90
2023-03-03T00:59:12.678Z,99.90
2023-03-03T01:01:15.301Z,99.90
2023-03-03T01:03:25.156Z,99.90
2023-03-03T01:05:26.933Z,99.90
2023-03-03T01:07:28.973Z,99.90
2023-03-03T01:09:30.862Z,99.90
2023-03-03T01:11:32.867Z,99.90
2023-03-03T01:13:38.091Z,99.90
2023-03-03T01:15:40.380Z,99.90
2023-03-03T01:17:43.319Z,99.90
2023-03-03T01:19:45.037Z,99.90
2023-03-03T01:21:46.875Z,99.90
2023-03-03T01:23:48.737Z,99.90
2023-03-03T01:25:50.409Z,99.90
2023-03-03T01:27:52.160Z,99.90
2023-03-03T01:29:53.972Z,99.90
2023-03-03T01:31:55.739Z,99.90
2023-03-03T01:33:57.374Z,99.90
2023-03-03T01:35:59.125Z,99.90
2023-03-03T01:38:00.809Z,99.90
2023-03-03T01:40:03.638Z,99.90
2023-03-03T01:42:05.517Z,99.90
2023-03-03T01:44:07.420Z,99.90
2023-03-03T01:46:09.169Z,99.90
2023-03-03T01:48:18.358Z,99.90
2023-03-03T01:50:40.306Z,99.90
2023-03-03T01:52:45.636Z,99.90
2023-03-03T01:54:53.269Z,99.90
2023-03-03T01:57:00.307Z,99.90
2023-03-03T01:59:11.847Z,99.90
2023-03-03T02:01:23.008Z,99.90
2023-03-03T02:03:25.135Z,99.90
2023-03-03T02:05:27.477Z,99.90
2023-03-03T02:07:31.700Z,99.90
2023-03-03T02:09:38.949Z,99.90
2023-03-03T02:11:43.171Z,99.90
2023-03-03T02:13:44.996Z,99.90
2023-03-03T02:15:46.943Z,99.90
2023-03-03T02:17:51.003Z,99.90
2023-03-03T02:20:07.004Z,99.90
2023-03-03T02:22:09.238Z,99.90
2023-03-03T02:24:25.542Z,99.90
2023-03-03T02:26:32.795Z,99.90
2023-03-03T02:28:37.029Z,99.90
2023-03-03T02:30:39.825Z,99.90
2023-03-03T02:32:41.580Z,99.90
2023-03-03T02:34:51.462Z,99.90
2023-03-03T02:36:53.165Z,99.90
2023-03-03T02:39:06.758Z,99.90
2023-03-03T02:41:20.891Z,99.90
2023-03-03T02:43:26.604Z,99.90
2023-03-03T02:45:28.605Z,99.90
2023-03-03T02:47:30.358Z,99.90
2023-03-03T02:49:35.177Z,99.90
2023-03-03T02:51:37.793Z,99.90
2023-03-03T02:53:39.634Z,99.90
2023-03-03T02:55:41.615Z,99.90
2023-03-03T02:57:43.269Z,99.90
2023-03-03T02:59:44.977Z,99.90
2023-03-03T03:01:47.503Z,99.90
2023-03-03T03:03:49.471Z,99.90
2023-03-03T03:05:51.239Z,99.90
2023-03-03T03:07:53.119Z,99.90
2023-03-03T03:09:55.957Z,99.90
2023-03-03T03:11:59.591Z,99.90
2023-03-03T03:14:02.773Z,99.90
2023-03-03T03:16:04.796Z,99.90
2023-03-03T03:18:07.720Z,99.90
2023-03-03T03:20:10.020Z,99.90
2023-03-03T03:22:11.803Z,99.90
2023-03-03T03:24:13.866Z,99.90
2023-03-03T03:26:15.738Z,99.90
2023-03-03T03:28:18.837Z,99.90
2023-03-03T03:30:20.752Z,99.90
2023-03-03T03:32:22.554Z,99.90
2023-03-03T03:34:24.292Z,99.90
2023-03-03T03:36:27.128Z,99.90
2023-03-03T03:38:30.303Z,99.90
2023-03-03T03:40:32.019Z,99.90
2023-03-03T03:42:33.657Z,99.90
2023-03-03T03:44:35.506Z,99.90
2023-03-03T03:46:37.191Z,99.90
2023-03-03T03:48:38.998Z,99.90
2023-03-03T03:50:40.928Z,99.90
2023-03-03T03:52:43.704Z,99.90
2023-03-03T03:54:45.596Z,99.90
2023-03-03T03:56:47.363Z,99.90
2023-03-03T03:58:48.996Z,99.90
2023-03-03T04:00:51.079Z,99.90
2023-03-03T04:02:52.966Z,99.90
2023-03-03T04:04:54.952Z,99.90
2023-03-03T04:06:56.919Z,99.90
2023-03-03T04:08:58.777Z,99.90
2023-03-03T04:11:00.470Z,99.90
2023-03-03T04:13:02.277Z,99.90
2023-03-03T04:15:09.197Z,99.90
2023-03-03T04:17:21.835Z,99.90
2023-03-03T04:19:23.891Z,99.90
2023-03-03T04:21:26.211Z,99.90
2023-03-03T04:23:27.962Z,99.90
2023-03-03T04:25:29.703Z,99.90
2023-03-03T04:27:35.697Z,99.90
2023-03-03T04:29:37.423Z,99.90
2023-03-03T04:31:39.204Z,99.90
2023-03-03T04:33:40.965Z,99.90
2023-03-03T04:35:42.664Z,99.90
2023-03-03T04:37:44.494Z,99.90
2023-03-03T04:39:46.251Z,99.90
2023-03-03T04:41:47.926Z,99.90
2023-03-03T04:43:49.591Z,99.90
2023-03-03T04:45:51.292Z,99.90
2023-03-03T04:47:53.153Z,99.90
2023-03-03T04:49:54.864Z,99.90
2023-03-03T04:51:57.373Z,99.90
2023-03-03T04:53:59.326Z,99.90
2023-03-03T04:56:01.538Z,99.90
2023-03-03T04:58:04.335Z,99.90
2023-03-03T05:00:07.085Z,99.90
2023-03-03T05:02:08.968Z,99.90
2023-03-03T05:04:10.687Z,99.90
2023-03-03T05:06:12.474Z,99.90
2023-03-03T05:08:14.547Z,99.90
2023-03-03T05:10:16.590Z,99.90
2023-03-03T05:12:18.253Z,99.90
2023-03-03T05:14:20.061Z,99.90
2023-03-03T05:16:22.182Z,99.90
2023-03-03T05:18:26.173Z,99.90
2023-03-03T05:20:28.001Z,99.90
2023-03-03T05:22:29.677Z,99.90
2023-03-03T05:24:31.434Z,99.90
2023-03-03T05:26:33.528Z,99.90
2023-03-03T05:28:35.619Z,99.90
2023-03-03T05:30:38.216Z,99.90
2023-03-03T05:32:40.007Z,99.90
2023-03-03T05:34:41.727Z,99.90
2023-03-03T05:36:44.192Z,99.90
2023-03-03T05:38:46.116Z,99.90
2023-03-03T05:40:47.987Z,99.90
2023-03-03T05:42:49.783Z,99.90
2023-03-03T05:44:51.799Z,99.90
2023-03-03T05:46:53.611Z,99.90
2023-03-03T05:48:55.472Z,99.90
2023-03-03T05:51:00.819Z,99.90
2023-03-03T05:53:03.039Z,99.90
2023-03-03T05:55:05.653Z,99.90
2023-03-03T05:57:07.690Z,99.90
2023-03-03T05:59:09.765Z,99.90
2023-03-03T06:01:12.061Z,99.90
2023-03-03T06:03:13.875Z,99.90
2023-03-03T06:05:15.753Z,99.90
2023-03-03T06:07:17.462Z,99.90
2023-03-03T06:09:19.293Z,99.90
2023-03-03T06:11:20.967Z,99.90
2023-03-03T06:13:22.914Z,99.90
2023-03-03T06:15:25.100Z,99.90
2023-03-03T06:17:26.864Z,99.90
2023-03-03T06:19:28.566Z,99.90
2023-03-03T06:21:30.585Z,99.90
2023-03-03T06:23:32.481Z,99.90
2023-03-03T06:25:35.755Z,99.90
2023-03-03T06:27:37.454Z,99.90
2023-03-03T06:29:39.191Z,99.90
2023-03-03T06:31:41.311Z,99.90
2023-03-03T06:33:43.382Z,99.90
2023-03-03T06:35:45.571Z,99.90
2023-03-03T06:37:47.237Z,99.90
2023-03-03T06:39:48.932Z,99.90
2023-03-03T06:41:51.112Z,99.90
2023-03-03T06:43:52.911Z,99.90
2023-03-03T06:45:54.580Z,99.90
2023-03-03T06:47:56.476Z,99.90
2023-03-03T06:49:58.118Z,99.90
2023-03-03T06:52:02.314Z,99.90
2023-03-03T06:54:11.937Z,99.90
2023-03-03T06:56:13.942Z,99.90
2023-03-03T06:58:21.418Z,99.90
2023-03-03T07:00:30.681Z,99.90
2023-03-03T07:02:32.906Z,99.90
2023-03-03T07:04:34.812Z,99.90
2023-03-03T07:06:37.796Z,99.90
2023-03-03T07:08:41.127Z,99.90
2023-03-03T07:10:43.577Z,99.90
2023-03-03T07:12:45.269Z,99.90
2023-03-03T07:14:51.701Z,81.40
2023-03-03T07:16:59.751Z,51.00
2023-03-03T07:19:03.248Z,43.30
2023-03-03T07:21:26.202Z,21.30
2023-03-03T07:23:52.192Z,5.30
2023-03-03T07:25:54.393Z,1.00
2023-03-03T07:28:00.889Z,1.00
2023-03-03T07:30:40.932Z,1.00
2023-03-03T07:32:46.163Z,1.00
2023-03-03T07:34:49.473Z,1.00
2023-03-03T07:36:55.635Z,1.00
2023-03-03T07:39:03.337Z,1.00
2023-03-03T07:41:21.030Z,1.00
2023-03-03T07:43:31.760Z,1.00
2023-03-03T07:45:37.700Z,1.00
2023-03-03T07:47:39.832Z,57.80
2023-03-03T07:49:41.835Z,1.00
2023-03-03T07:51:43.543Z,99.90
2023-03-03T07:53:45.297Z,99.90
2023-03-03T07:55:47.126Z,99.90
2023-03-03T07:57:51.763Z,1.00
2023-03-03T08:00:28.603Z,99.90
2023-03-03T08:02:39.080Z,99.90
2023-03-03T08:04:50.770Z,99.90
2023-03-03T08:06:57.942Z,1.00
2023-03-03T08:09:14.175Z,27.20
2023-03-03T08:11:16.024Z,1.00
2023-03-03T08:13:20.499Z,1.00
2023-03-03T08:15:31.082Z,89.50
2023-03-03T08:17:37.782Z,97.70
2023-03-03T08:19:39.588Z,99.90
2023-03-03T08:21:41.240Z,1.00
2023-03-03T08:23:43.068Z,1.00
2023-03-03T08:25:45.634Z,1.00
2023-03-03T08:27:47.320Z,99.90
2023-03-03T08:29:50.265Z,1.00
2023-03-03T08:31:52.106Z,1.00
2023-03-03T08:33:53.897Z,99.90
2023-03-03T08:35:55.933Z,93.00
2023-03-03T08:37:58.039Z,1.00
2023-03-03T08:40:00.119Z,1.00
2023-03-03T08:42:01.794Z,99.90
2023-03-03T08:44:03.610Z,1.00
2023-03-03T08:46:10.152Z,1.00
2023-03-03T08:48:12.178Z,1.00
2023-03-03T08:50:14.380Z,6.30
2023-03-03T08:52:16.044Z,1.00
2023-03-03T08:54:18.012Z,1.00
2023-03-03T08:56:19.824Z,1.00
2023-03-03T08:58:30.409Z,1.00
2023-03-03T09:00:35.951Z,1.00
2023-03-03T09:02:37.956Z,1.00
2023-03-03T09:04:39.928Z,1.00
2023-03-03T09:06:41.657Z,99.90
2023-03-03T09:08:43.376Z,99.90
2023-03-03T09:10:45.094Z,99.90
2023-03-03T09:12:51.116Z,99.90
2023-03-03T09:14:52.902Z,99.90
2023-03-03T09:16:56.999Z,99.90
2023-03-03T09:18:59.142Z,99.90
2023-03-03T09:21:01.127Z,99.90
2023-03-03T09:23:22.209Z,1.00
2023-03-03T09:25:33.800Z,1.00
2023-03-03T09:27:37.811Z,1.00
2023-03-03T09:29:40.485Z,99.90
2023-03-03T09:31:55.237Z,4.70
2023-03-03T09:33:59.641Z,35.60
2023-03-03T09:36:12.923Z,99.90
2023-03-03T09:38:21.739Z,99.90
2023-03-03T09:40:41.228Z,99.90
2023-03-03T09:42:49.191Z,1.00
2023-03-03T09:44:56.954Z,1.00
2023-03-03T09:47:02.189Z,1.00
2023-03-03T09:49:20.864Z,1.00
2023-03-03T09:51:46.750Z,99.90
2023-03-03T09:54:21.352Z,1.00
2023-03-03T09:56:39.541Z,85.80
2023-03-03T09:59:18.158Z,99.90
2023-03-03T10:01:38.896Z,1.00
2023-03-03T10:03:46.793Z,1.00
2023-03-03T10:06:04.834Z,99.90
2023-03-03T10:08:28.872Z,99.90
2023-03-03T10:10:58.614Z,1.00
2023-03-03T10:13:38.165Z,1.00
2023-03-03T10:15:58.442Z,99.90
2023-03-03T10:18:35.210Z,99.90
2023-03-03T10:21:14.112Z,1.00
2023-03-03T10:23:40.684Z,99.90
2023-03-03T10:25:50.609Z,33.90
2023-03-03T10:27:59.231Z,1.00
2023-03-03T10:30:41.144Z,99.90
2023-03-03T10:33:08.177Z,38.40
2023-03-03T10:35:36.664Z,99.90
2023-03-03T10:37:57.251Z,93.50
2023-03-03T10:40:28.697Z,1.00
2023-03-03T10:42:44.700Z,99.90
2023-03-03T10:45:22.112Z,1.00
2023-03-03T10:47:46.729Z,1.00
2023-03-03T10:50:04.749Z,99.90
2023-03-03T10:52:19.632Z,99.90
2023-03-03T10:54:41.677Z,1.00
2023-03-03T10:56:53.356Z,1.00
2023-03-03T10:59:27.370Z,99.90
2023-03-03T11:01:47.367Z,99.90
2023-03-03T11:03:56.222Z,1.00
2023-03-03T11:06:20.747Z,99.90
2023-03-03T11:08:43.991Z,1.00
2023-03-03T11:11:02.660Z,1.00
2023-03-03T11:13:13.650Z,1.00
2023-03-03T11:15:26.891Z,1.00
2023-03-03T11:17:51.336Z,1.00
2023-03-03T11:20:02.230Z,1.00
2023-03-03T11:22:30.021Z,1.00
2023-03-03T11:24:41.077Z,1.00
2023-03-03T11:26:42.720Z,1.00
2023-03-03T11:29:06.461Z,1.00
2023-03-03T11:31:32.048Z,1.00
2023-03-03T11:34:12.636Z,1.00
2023-03-03T11:36:26.709Z,1.00
2023-03-03T11:38:50.185Z,1.00
2023-03-03T11:40:55.195Z,1.00
2023-03-03T11:43:33.915Z,1.00
2023-03-03T11:45:45.203Z,1.00
2023-03-03T11:48:01.170Z,1.00
2023-03-03T11:50:13.953Z,1.00
2023-03-03T11:52:35.198Z,99.90
2023-03-03T11:54:36.849Z,99.90
2023-03-03T11:56:41.541Z,99.90
2023-03-03T11:58:50.799Z,99.90
2023-03-03T12:01:11.483Z,99.90
2023-03-03T12:03:19.461Z,99.90
2023-03-03T12:05:44.336Z,99.90
2023-03-03T12:08:07.794Z,99.90
2023-03-03T12:10:26.874Z,99.90
2023-03-03T12:12:36.895Z,99.90
2023-03-03T12:15:12.079Z,99.90
2023-03-03T12:17:37.791Z,99.90
2023-03-03T12:19:48.424Z,99.90
2023-03-03T12:22:11.965Z,99.90
2023-03-03T12:24:54.705Z,99.90
2023-03-03T12:27:19.666Z,99.90
2023-03-03T12:29:51.314Z,99.90
2023-03-03T12:32:12.113Z,99.90
2023-03-03T12:34:35.263Z,99.90
2023-03-03T12:36:55.220Z,99.90
2023-03-03T12:39:34.162Z,99.90
2023-03-03T12:41:51.557Z,99.90
2023-03-03T12:44:22.772Z,99.90
2023-03-03T12:46:28.626Z,99.90
2023-03-03T12:48:44.279Z,99.90
2023-03-03T12:50:46.356Z,99.90
2023-03-03T12:53:10.287Z,99.90
2023-03-03T12:55:41.550Z,99.90
2023-03-03T12:57:49.745Z,97.20
2023-03-03T13:00:19.437Z,99.90
2023-03-03T13:02:58.428Z,99.90
2023-03-03T13:05:27.846Z,99.90
2023-03-03T13:07:46.152Z,97.00
2023-03-03T13:09:50.689Z,92.80
2023-03-03T13:12:28.112Z,85.20
2023-03-03T13:14:57.181Z,89.00
2023-03-03T13:17:09.295Z,84.40
2023-03-03T13:19:51.829Z,73.20
2023-03-03T13:22:08.572Z,63.80
2023-03-03T13:24:37.611Z,65.40
2023-03-03T13:26:42.706Z,70.20
2023-03-03T13:29:02.570Z,57.30
2023-03-03T13:31:15.048Z,61.90
2023-03-03T13:33:25.787Z,64.60
2023-03-03T13:35:44.648Z,54.00
2023-03-03T13:37:52.658Z,50.50
2023-03-03T13:40:03.813Z,56.50
2023-03-03T13:42:36.461Z,58.40
2023-03-03T13:44:43.355Z,53.90
2023-03-03T13:46:57.499Z,51.30
2023-03-03T13:49:18.134Z,46.00
2023-03-03T13:51:40.384Z,56.50
2023-03-03T13:54:02.225Z,49.00
2023-03-03T13:56:26.741Z,51.80
2023-03-03T13:58:49.036Z,53.60
2023-03-03T14:01:00.627Z,71.50
2023-03-03T14:03:33.400Z,74.80
2023-03-03T14:05:49.853Z,62.30
2023-03-03T14:08:20.661Z,54.60
2023-03-03T14:10:28.381Z,59.30
2023-03-03T14:12:41.151Z,52.60
2023-03-03T14:14:50.581Z,51.90
2023-03-03T14:17:15.281Z,52.90
2023-03-03T14:19:30.810Z,49.40
2023-03-03T14:21:41.522Z,43.20
2023-03-03T14:24:17.904Z,38.80
2023-03-03T14:26:19.800Z,42.50
2023-03-03T14:28:24.988Z,53.50
2023-03-03T14:30:29.509Z,52.60
2023-03-03T14:32:44.785Z,48.80
2023-03-03T14:34:58.722Z,52.60
2023-03-03T14:37:26.219Z,50.50
2023-03-03T14:39:37.730Z,55.30
2023-03-03T14:41:41.780Z,67.90
2023-03-03T14:43:46.232Z,63.70
2023-03-03T14:45:48.240Z,69.80
2023-03-03T14:47:50.179Z,91.20
2023-03-03T14:49:52.863Z,99.90
2023-03-03T14:52:17.105Z,99.90
2023-03-03T14:54:26.965Z,98.70
2023-03-03T14:56:33.710Z,99.90
2023-03-03T14:58:40.843Z,99.30
2023-03-03T15:00:42.487Z,99.90
2023-03-03T15:03:08.992Z,99.90
2023-03-03T15:05:28.398Z,99.90
2023-03-03T15:07:38.702Z,99.90
2023-03-03T15:09:48.451Z,99.90
2023-03-03T15:11:55.470Z,99.90
2023-03-03T15:14:16.056Z,99.90
2023-03-03T15:16:19.088Z,1.00
2023-03-03T15:18:20.858Z,1.00
2023-03-03T15:20:51.632Z,1.00
2023-03-03T15:23:23.696Z,1.00
2023-03-03T15:25:43.778Z,1.00
2023-03-03T15:28:08.229Z,1.00
2023-03-03T15:30:36.424Z,1.00
2023-03-03T15:32:44.241Z,1.00
2023-03-03T15:35:00.349Z,1.00
2023-03-03T15:37:25.758Z,1.00
2023-03-03T15:40:00.711Z,1.00
2023-03-03T15:42:11.934Z,1.00
2023-03-03T15:44:26.418Z,15.10
2023-03-03T15:47:12.430Z,94.80
2023-03-03T15:49:45.721Z,99.90
2023-03-03T15:52:23.567Z,99.90
2023-03-03T15:54:40.275Z,99.90
2023-03-03T15:56:58.208Z,99.90
2023-03-03T15:59:00.269Z,99.90
2023-03-03T16:01:34.127Z,99.90
2023-03-03T16:03:40.675Z,1.00
2023-03-03T16:05:53.768Z,1.00
2023-03-03T16:08:04.061Z,1.00
2023-03-03T16:10:22.752Z,1.00
2023-03-03T16:12:40.746Z,1.00
2023-03-03T16:14:42.408Z,1.00
2023-03-03T16:16:48.313Z,20.00
2023-03-03T16:19:11.822Z,99.90
2023-03-03T16:21:39.603Z,99.90
2023-03-03T16:23:55.618Z,99.90
2023-03-03T16:26:21.497Z,99.90
2023-03-03T16:28:27.491Z,1.00
2023-03-03T16:31:11.236Z,1.00
2023-03-03T16:33:26.824Z,1.00
2023-03-03T16:35:42.377Z,99.90
2023-03-03T16:37:56.987Z,99.90
2023-03-03T16:40:14.252Z,99.90
2023-03-03T16:42:30.262Z,1.00
2023-03-03T16:45:17.645Z,1.00
2023-03-03T16:47:30.374Z,92.10
2023-03-03T16:49:40.272Z,99.90
2023-03-03T16:51:48.904Z,1.00
2023-03-03T16:54:11.402Z,99.90
2023-03-03T16:56:38.044Z,99.90
2023-03-03T16:58:50.704Z,1.00
2023-03-03T17:01:05.689Z,1.00
2023-03-03T17:03:16.266Z,92.00
2023-03-03T17:05:31.392Z,99.90
2023-03-03T17:08:02.721Z,99.90
2023-03-03T17:10:29.435Z,1.00
2023-03-03T17:12:37.237Z,1.00
2023-03-03T17:14:38.840Z,83.20
2023-03-03T17:17:03.779Z,99.90
2023-03-03T17:19:49.607Z,99.90
2023-03-03T17:22:12.647Z,99.90
2023-03-03T17:24:55.842Z,1.00
2023-03-03T17:27:08.120Z,1.00
2023-03-03T17:29:51.831Z,1.00
2023-03-03T17:32:12.228Z,1.00
2023-03-03T17:34:41.519Z,1.00
2023-03-03T17:37:00.462Z,1.00
2023-03-03T17:39:19.052Z,1.00
2023-03-03T17:41:33.444Z,35.50
2023-03-03T17:43:48.573Z,99.90
2023-03-03T17:45:54.234Z,99.90
2023-03-03T17:47:55.982Z,99.90
2023-03-03T17:50:23.310Z,99.90
2023-03-03T17:52:52.453Z,99.90
2023-03-03T17:54:57.793Z,99.90
2023-03-03T17:57:24.103Z,99.90
2023-03-03T17:59:34.559Z,99.90
2023-03-03T18:02:13.228Z,99.90
2023-03-03T18:04:22.859Z,99.90
2023-03-03T18:06:24.716Z,1.00
2023-03-03T18:09:14.467Z,1.00
2023-03-03T18:11:26.733Z,1.00
2023-03-03T18:13:55.703Z,1.00
2023-03-03T18:16:19.206Z,1.00
2023-03-03T18:18:39.850Z,1.00
2023-03-03T18:20:59.942Z,1.00
2023-03-03T18:23:24.286Z,1.00
2023-03-03T18:25:47.072Z,1.00
2023-03-03T18:28:08.784Z,1.00
2023-03-03T18:30:29.128Z,1.00
2023-03-03T18:33:11.396Z,1.00
2023-03-03T18:35:25.658Z,1.00
2023-03-03T18:37:30.854Z,1.00
2023-03-03T18:39:50.300Z,1.00
2023-03-03T18:42:30.552Z,1.00
2023-03-03T18:44:32.454Z,1.00
2023-03-03T18:46:47.308Z,1.00
2023-03-03T18:49:10.063Z,1.00
2023-03-03T18:51:11.896Z,1.00
2023-03-03T18:53:25.562Z,1.00
2023-03-03T18:55:27.487Z,1.00
2023-03-03T18:57:29.600Z,1.00
2023-03-03T18:59:31.429Z,1.00
2023-03-03T19:01:36.336Z,1.00
2023-03-03T19:04:00.938Z,1.00
2023-03-03T19:06:04.804Z,1.00
2023-03-03T19:08:22.175Z,1.00
2023-03-03T19:11:02.806Z,1.00
2023-03-03T19:13:29.332Z,1.00
2023-03-03T19:15:35.974Z,1.00
2023-03-03T19:17:37.866Z,1.00
2023-03-03T19:20:18.302Z,1.00
2023-03-03T19:22:30.782Z,1.00
2023-03-03T19:24:34.704Z,1.00
2023-03-03T19:27:04.175Z,1.00
2023-03-03T19:29:38.744Z,1.00
2023-03-03T19:31:54.232Z,1.00
2023-03-03T19:34:06.341Z,1.00
2023-03-03T19:36:32.615Z,1.00
2023-03-03T19:38:55.711Z,1.00
2023-03-03T19:41:42.510Z,1.00
2023-03-03T19:44:20.167Z,1.00
2023-03-03T19:46:49.049Z,1.00
2023-03-03T19:49:07.911Z,1.00
2023-03-03T19:51:31.286Z,1.00
2023-03-03T19:53:44.793Z,1.00
2023-03-03T19:56:11.124Z,1.00
2023-03-03T19:58:25.855Z,1.00
2023-03-03T20:00:49.383Z,1.00
2023-03-03T20:03:09.765Z,1.00
2023-03-03T20:05:21.226Z,1.00
2023-03-03T20:07:47.851Z,1.00
2023-03-03T20:10:08.597Z,1.00
2023-03-03T20:12:41.255Z,1.00
2023-03-03T20:14:54.244Z,1.00
2023-03-03T20:17:11.959Z,1.00
2023-03-03T20:19:34.639Z,1.00
2023-03-03T20:21:58.750Z,1.00
2023-03-03T20:24:29.596Z,1.00
2023-03-03T20:27:05.508Z,1.00
2023-03-03T20:29:35.074Z,1.00
2023-03-03T20:31:47.552Z,1.00
2023-03-03T20:33:58.450Z,1.00
2023-03-03T20:36:15.341Z,1.00
2023-03-03T20:38:39.240Z,1.00
2023-03-03T20:41:01.344Z,1.00
2023-03-03T20:43:30.740Z,1.00
2023-03-03T20:46:04.348Z,1.00
2023-03-03T20:48:40.470Z,1.00
2023-03-03T20:50:55.504Z,1.00
2023-03-03T20:53:09.032Z,1.00
2023-03-03T20:55:30.296Z,1.00
2023-03-03T20:57:50.845Z,1.00
2023-03-03T21:00:00.918Z,1.00
2023-03-03T21:02:12.857Z,1.00
2023-03-03T21:04:32.302Z,1.00
2023-03-03T21:06:41.528Z,1.00
2023-03-03T21:08:55.069Z,1.00
2023-03-03T21:10:57.776Z,1.00
2023-03-03T21:13:29.416Z,1.00
2023-03-03T21:15:36.550Z,1.00
2023-03-03T21:17:38.223Z,1.00
2023-03-03T21:19:39.900Z,1.00
2023-03-03T21:21:45.208Z,1.00
2023-03-03T21:23:47.279Z,1.00
2023-03-03T21:25:57.137Z,1.00
2023-03-03T21:28:30.410Z,1.00
2023-03-03T21:30:32.242Z,1.00
2023-03-03T21:32:37.032Z,1.00
2023-03-03T21:34:41.233Z,1.00
2023-03-03T21:36:43.068Z,1.00
2023-03-03T21:38:46.281Z,1.00
2023-03-03T21:41:00.271Z,1.00
2023-03-03T21:43:04.129Z,1.00
2023-03-03T21:45:13.813Z,1.00
2023-03-03T21:47:18.437Z,1.00
2023-03-03T21:49:20.180Z,1.00
2023-03-03T21:51:24.296Z,1.00
2023-03-03T21:53:26.791Z,1.00
2023-03-03T21:55:28.531Z,1.00
2023-03-03T21:57:30.299Z,1.00
2023-03-03T21:59:32.077Z,1.00
2023-03-03T22:01:35.896Z,1.00
2023-03-03T22:03:39.556Z,1.00
2023-03-03T22:05:41.766Z,1.00
2023-03-03T22:07:43.453Z,1.00
2023-03-03T22:09:45.163Z,1.00
2023-03-03T22:11:47.299Z,1.00
2023-03-03T22:13:49.291Z,1.00
2023-03-03T22:15:51.383Z,1.00
2023-03-03T22:17:53.044Z,1.00
2023-03-03T22:19:55.745Z,1.00
2023-03-03T22:21:57.574Z,1.00
2023-03-03T22:23:59.331Z,1.00
2023-03-03T22:26:02.161Z,1.00
2023-03-03T22:28:04.355Z,1.00
2023-03-03T22:30:06.849Z,1.00
2023-03-03T22:32:08.709Z,1.00
2023-03-03T22:34:11.107Z,1.00
2023-03-03T22:36:13.321Z,1.00
2023-03-03T22:38:15.933Z,1.00
2023-03-03T22:40:17.734Z,1.00
2023-03-03T22:42:19.470Z,1.00
2023-03-03T22:44:21.097Z,1.00
2023-03-03T22:46:22.966Z,1.00
2023-03-03T22:48:26.031Z,1.00
2023-03-03T22:50:27.741Z,1.00
2023-03-03T22:52:29.390Z,1.00
2023-03-03T22:54:31.389Z,1.00
2023-03-03T22:56:33.161Z,1.00
2023-03-03T22:58:34.854Z,1.00
2023-03-03T23:00:41.672Z,1.00
2023-03-03T23:02:43.731Z,1.00
2023-03-03T23:04:45.442Z,1.00
2023-03-03T23:06:47.161Z,1.00
2023-03-03T23:08:48.903Z,3.40
2023-03-03T23:10:50.753Z,6.70
2023-03-03T23:12:52.465Z,7.40
2023-03-03T23:14:54.168Z,12.90
2023-03-03T23:16:55.976Z,18.60
2023-03-03T23:18:57.987Z,21.00
2023-03-03T23:20:59.755Z,24.50
2023-03-03T23:23:01.564Z,31.50
2023-03-03T23:25:03.744Z,43.40
2023-03-03T23:27:05.542Z,49.70
2023-03-03T23:29:07.259Z,63.90
2023-03-03T23:31:09.185Z,66.00
2023-03-03T23:33:11.219Z,62.80
2023-03-03T23:35:13.639Z,73.60
2023-03-03T23:37:15.336Z,90.70
2023-03-03T23:39:17.415Z,98.30
2023-03-03T23:41:20.002Z,99.90
2023-03-03T23:43:21.975Z,99.80
2023-03-03T23:45:24.039Z,97.10
2023-03-03T23:47:26.052Z,93.30
2023-03-03T23:49:27.806Z,93.20
2023-03-03T23:51:29.659Z,95.00
2023-03-03T23:53:31.414Z,96.40
2023-03-03T23:55:33.552Z,97.40
2023-03-03T23:57:35.248Z,97.50
2023-03-03T23:59:37.179Z,96.80
